Time;durP1;ratioP1;P1;durP2;ratioP2;P2;SDS_P1;SDS_P2;PMS_P1;PMS_P2;Temp;Humidity;BMP_temperature;BMP_pressure;BME280_temperature;BME280_humidity;BME280_pressure;Samples;Min_cycle;Max_cycle;Signal;HPM_P1;HPM_P2
2023/04/19 00:01:29;;;;;;;7.93;3.50;;;8.50;99.90;;;;;;5076875;28;20048;-40
2023/04/19 00:03:55;;;;;;;8.73;3.70;;;8.50;99.90;;;;;;5076774;28;20098;-40
2023/04/19 00:06:21;;;;;;;6.97;3.57;;;8.50;99.90;;;;;;5059319;28;20056;-40
2023/04/19 00:08:47;;;;;;;6.37;3.23;;;8.50;99.90;;;;;;5075756;28;20087;-41
2023/04/19 00:11:12;;;;;;;6.37;3.43;;;8.50;99.90;;;;;;5075762;28;20127;-40
2023/04/19 00:13:38;;;;;;;7.53;3.27;;;8.50;99.90;;;;;;5075413;28;20080;-42
2023/04/19 00:16:04;;;;;;;7.53;4.20;;;8.50;99.90;;;;;;5075802;28;20090;-40
2023/04/19 00:18:30;;;;;;;6.22;3.03;;;8.50;99.90;;;;;;5075654;28;20041;-40
2023/04/19 00:20:56;;;;;;;7.53;3.60;;;8.50;99.90;;;;;;5076498;28;20414;-41
2023/04/19 00:23:22;;;;;;;6.72;3.75;;;8.50;99.90;;;;;;5075686;28;20535;-41
2023/04/19 00:25:48;;;;;;;6.80;3.10;;;8.50;99.90;;;;;;5075555;28;20137;-41
2023/04/19 00:28:14;;;;;;;8.40;3.38;;;8.50;99.90;;;;;;5075485;28;20076;-40
2023/04/19 00:30:40;;;;;;;7.38;3.63;;;8.50;99.90;;;;;;5075521;28;20087;-40
2023/04/19 00:33:11;;;;;;;6.83;3.60;;;8.50;99.90;;;;;;5076208;28;20143;-40
2023/04/19 00:35:43;;;;;;;8.60;3.70;;;8.50;99.90;;;;;;5076085;28;20056;-40
2023/04/19 00:38:09;;;;;;;7.55;3.88;;;8.50;99.90;;;;;;5075333;28;20055;-40
2023/04/19 00:40:36;;;;;;;7.77;3.80;;;8.40;99.90;;;;;;5076345;28;20048;-40
2023/04/19 00:43:02;;;;;;;7.65;3.40;;;8.40;99.90;;;;;;5075255;28;20318;-40
2023/04/19 00:45:28;;;;;;;7.90;3.40;;;8.30;99.90;;;;;;5074939;28;20588;-41
2023/04/19 00:47:54;;;;;;;6.47;3.20;;;8.30;99.90;;;;;;5075084;28;20044;-41
2023/04/19 00:50:21;;;;;;;7.15;3.08;;;8.20;99.90;;;;;;5075048;28;20503;-40
2023/04/19 00:52:47;;;;;;;7.88;3.75;;;8.10;99.90;;;;;;5058190;28;20052;-40
2023/04/19 00:55:13;;;;;;;7.00;3.67;;;8.00;99.90;;;;;;5076106;28;20052;-40
2023/04/19 00:57:39;;;;;;;8.27;4.13;;;7.90;99.90;;;;;;5075902;28;20376;-40
2023/04/19 01:00:08;;;;;;;8.93;4.10;;;7.80;99.90;;;;;;5074788;28;20135;-41
2023/04/19 01:02:35;;;;;;;7.65;3.85;;;7.70;99.90;;;;;;5075124;28;20056;-40
2023/04/19 01:05:01;;;;;;;6.93;3.78;;;7.70;99.90;;;;;;5074950;28;20055;-40
2023/04/19 01:07:27;;;;;;;8.43;3.97;;;7.60;99.90;;;;;;5074692;28;20395;-40
2023/04/19 01:09:52;;;;;;;9.20;3.80;;;7.50;99.90;;;;;;5074702;28;20378;-40
2023/04/19 01:12:18;;;;;;;8.30;4.17;;;7.50;99.90;;;;;;5057948;28;20044;-41
2023/04/19 01:14:44;;;;;;;8.30;4.20;;;7.40;99.90;;;;;;5074734;28;20067;-40
2023/04/19 01:17:12;;;;;;;9.27;4.37;;;7.40;99.90;;;;;;5058239;28;20486;-40
2023/04/19 01:19:38;;;;;;;7.25;3.90;;;7.40;99.90;;;;;;5074555;28;20052;-40
2023/04/19 01:22:05;;;;;;;12.00;4.73;;;7.40;99.90;;;;;;5074749;28;20562;-40
2023/04/19 01:24:31;;;;;;;8.25;4.38;;;7.30;99.90;;;;;;5074620;28;20106;-40
2023/04/19 01:26:57;;;;;;;9.18;4.68;;;7.30;99.90;;;;;;5057727;28;20067;-40
2023/04/19 01:29:23;;;;;;;10.37;4.83;;;7.30;99.90;;;;;;5057418;28;20439;-41
2023/04/19 01:31:52;;;;;;;9.87;5.20;;;7.30;99.90;;;;;;5074952;28;20101;-40
2023/04/19 01:34:24;;;;;;;9.25;5.07;;;7.20;99.90;;;;;;5075226;28;20096;-40
2023/04/19 01:36:50;;;;;;;8.15;4.93;;;7.20;99.90;;;;;;5057902;28;20053;-40
2023/04/19 01:39:16;;;;;;;9.70;4.90;;;7.20;99.90;;;;;;5074418;28;20044;-40
2023/04/19 01:41:41;;;;;;;8.70;5.10;;;7.20;99.90;;;;;;5074035;28;20491;-40
2023/04/19 01:44:07;;;;;;;10.03;5.07;;;7.10;99.90;;;;;;5057227;28;20051;-40
2023/04/19 01:46:33;;;;;;;11.23;5.77;;;7.10;99.90;;;;;;5075247;28;20090;-40
2023/04/19 01:48:58;;;;;;;10.10;4.73;;;7.10;99.90;;;;;;5075067;28;20475;-40
2023/04/19 01:51:24;;;;;;;9.33;4.67;;;7.10;99.90;;;;;;5057104;28;20041;-40
2023/04/19 01:53:52;;;;;;;10.87;5.43;;;7.10;99.90;;;;;;5057582;28;20055;-40
2023/04/19 01:56:18;;;;;;;11.48;5.38;;;7.00;99.90;;;;;;5073688;28;20334;-40
2023/04/19 01:58:44;;;;;;;8.95;4.65;;;7.00;99.90;;;;;;5073519;28;20056;-40
2023/04/19 02:01:12;;;;;;;10.93;5.37;;;6.90;99.90;;;;;;5074732;28;20105;-40
2023/04/19 02:03:39;;;;;;;8.10;4.28;;;6.90;99.90;;;;;;5073696;28;20052;-40
2023/04/19 02:06:04;;;;;;;8.95;4.85;;;6.90;99.90;;;;;;5073796;28;20403;-40
2023/04/19 02:08:30;;;;;;;9.73;4.50;;;6.80;99.90;;;;;;5073648;28;20040;-41
2023/04/19 02:10:56;;;;;;;9.77;4.67;;;6.80;99.90;;;;;;5072852;28;20094;-41
2023/04/19 02:13:21;;;;;;;8.70;4.13;;;6.80;99.90;;;;;;5072958;28;20056;-41
2023/04/19 02:15:48;;;;;;;7.30;3.93;;;6.80;99.90;;;;;;5073506;28;20041;-41
2023/04/19 02:18:13;;;;;;;7.97;3.67;;;6.80;99.90;;;;;;5057298;28;20051;-40
2023/04/19 02:20:39;;;;;;;8.00;3.73;;;6.80;99.90;;;;;;5056554;28;20465;-40
2023/04/19 02:23:05;;;;;;;7.60;3.37;;;6.80;99.90;;;;;;5073311;28;20063;-40
2023/04/19 02:25:30;;;;;;;6.37;3.30;;;6.90;99.90;;;;;;5056702;28;20040;-44
2023/04/19 02:27:56;;;;;;;7.00;2.83;;;6.90;99.90;;;;;;5056474;28;20056;-40
2023/04/19 02:30:22;;;;;;;8.17;3.03;;;6.90;99.90;;;;;;5073271;28;20484;-41
2023/04/19 02:32:48;;;;;;;6.70;3.27;;;7.00;99.90;;;;;;5089726;28;20043;-41
2023/04/19 02:35:14;;;;;;;7.10;3.15;;;7.00;99.90;;;;;;5074129;28;20052;-40
2023/04/19 02:37:39;;;;;;;7.47;3.10;;;6.90;99.90;;;;;;5073071;28;20040;-40
2023/04/19 02:40:06;;;;;;;7.23;3.20;;;7.00;99.90;;;;;;5072995;28;20048;-40
2023/04/19 02:42:32;;;;;;;6.57;3.30;;;7.00;99.90;;;;;;5073282;28;20273;-40
2023/04/19 02:44:58;;;;;;;7.27;3.20;;;6.90;99.90;;;;;;5074039;28;20157;-40
2023/04/19 02:47:23;;;;;;;6.83;3.17;;;6.80;99.90;;;;;;5056332;28;20067;-40
2023/04/19 02:49:49;;;;;;;7.40;3.47;;;6.80;99.90;;;;;;5056363;28;20055;-40
2023/04/19 02:52:14;;;;;;;8.50;3.87;;;6.70;99.90;;;;;;5073731;28;20154;-40
2023/04/19 02:54:40;;;;;;;7.33;3.27;;;6.60;99.90;;;;;;5072883;28;20071;-40
2023/04/19 02:57:06;;;;;;;7.90;3.20;;;6.50;99.90;;;;;;5055956;28;20071;-40
2023/04/19 02:59:31;;;;;;;7.57;3.23;;;6.40;99.90;;;;;;5073628;28;20081;-40
2023/04/19 03:01:57;;;;;;;7.07;3.90;;;6.40;99.90;;;;;;5056091;28;20047;-40
2023/04/19 03:04:23;;;;;;;6.57;3.03;;;6.30;99.90;;;;;;5073126;28;20049;-40
2023/04/19 03:06:49;;;;;;;8.33;3.90;;;6.20;99.90;;;;;;5073738;28;20083;-40
2023/04/19 03:09:15;;;;;;;7.45;3.75;;;6.20;99.90;;;;;;5072723;28;20530;-40
2023/04/19 03:11:41;;;;;;;7.10;3.60;;;6.10;99.90;;;;;;5072565;28;20074;-40
2023/04/19 03:14:06;;;;;;;7.27;3.47;;;6.00;99.90;;;;;;5072889;28;20052;-40
2023/04/19 03:16:32;;;;;;;7.17;3.57;;;6.00;99.90;;;;;;5072697;28;20047;-40
2023/04/19 03:18:58;;;;;;;7.97;3.53;;;5.90;99.90;;;;;;5055896;28;20055;-40
2023/04/19 03:21:26;;;;;;;7.93;3.63;;;5.90;99.90;;;;;;5072346;28;20047;-40
2023/04/19 03:23:52;;;;;;;8.15;4.00;;;5.90;99.90;;;;;;5074331;28;20084;-40
2023/04/19 03:26:18;;;;;;;7.25;3.55;;;5.90;99.90;;;;;;5077465;28;20044;-40
2023/04/19 03:28:44;;;;;;;7.93;3.80;;;5.90;99.90;;;;;;5077922;28;20387;-40
2023/04/19 03:31:10;;;;;;;7.53;4.03;;;5.80;99.90;;;;;;5076947;28;20483;-40
2023/04/19 03:33:35;;;;;;;8.10;3.53;;;5.80;99.90;;;;;;5075990;28;20071;-40
2023/04/19 03:36:01;;;;;;;8.33;3.97;;;5.70;99.90;;;;;;5077611;28;20052;-40
2023/04/19 03:38:27;;;;;;;6.47;3.50;;;5.70;99.90;;;;;;5076540;28;20561;-40
2023/04/19 03:40:54;;;;;;;8.27;3.47;;;5.60;99.90;;;;;;5076252;28;20044;-40
2023/04/19 03:43:21;;;;;;;7.95;4.00;;;5.60;99.90;;;;;;5060003;28;20048;-40
2023/04/19 03:45:46;;;;;;;7.03;3.60;;;5.60;99.90;;;;;;5077427;28;20071;-40
2023/04/19 03:48:12;;;;;;;7.27;3.73;;;5.50;99.90;;;;;;5059537;28;20483;-40
2023/04/19 03:50:38;;;;;;;7.83;3.97;;;5.50;99.90;;;;;;5076293;28;20044;-40
2023/04/19 03:53:04;;;;;;;8.07;3.70;;;5.50;99.90;;;;;;5075829;28;20119;-39
2023/04/19 03:55:30;;;;;;;8.75;3.92;;;5.40;99.90;;;;;;5075878;28;20127;-40
2023/04/19 03:57:56;;;;;;;6.63;3.37;;;5.40;99.90;;;;;;5076335;28;20456;-40
2023/04/19 04:00:22;;;;;;;9.33;4.13;;;5.40;99.90;;;;;;5076178;28;20388;-40
2023/04/19 04:02:47;;;;;;;9.40;4.20;;;5.30;99.90;;;;;;5076861;28;20483;-40
2023/04/19 04:05:13;;;;;;;6.20;3.40;;;5.20;99.90;;;;;;5076052;28;20055;-40
2023/04/19 04:07:39;;;;;;;7.80;4.10;;;5.10;99.90;;;;;;5076974;28;20044;-40
2023/04/19 04:10:05;;;;;;;7.90;4.17;;;5.10;99.90;;;;;;5075389;28;20067;-40
2023/04/19 04:12:31;;;;;;;7.72;3.53;;;5.00;99.90;;;;;;5077015;28;20048;-40
2023/04/19 04:14:57;;;;;;;8.20;3.87;;;5.00;99.90;;;;;;5059164;28;20056;-40
2023/04/19 04:17:23;;;;;;;6.57;3.57;;;5.00;99.90;;;;;;5075349;28;20045;-40
2023/04/19 04:19:49;;;;;;;7.28;3.30;;;5.00;99.90;;;;;;5075650;28;20049;-40
2023/04/19 04:22:15;;;;;;;10.17;3.60;;;5.00;99.90;;;;;;5075497;28;20119;-40
2023/04/19 04:24:42;;;;;;;6.82;3.30;;;5.00;99.90;;;;;;5075301;28;20052;-40
2023/04/19 04:27:11;;;;;;;7.65;4.20;;;5.00;99.90;;;;;;5075765;28;20094;-40
2023/04/19 04:29:38;;;;;;;7.30;3.28;;;5.00;99.90;;;;;;5075335;28;20106;-40
2023/04/19 04:32:09;;;;;;;7.55;3.08;;;5.00;99.90;;;;;;5076292;28;20480;-40
2023/04/19 04:34:36;;;;;;;7.90;3.67;;;5.00;99.90;;;;;;5074790;28;20044;-40
2023/04/19 04:37:02;;;;;;;8.07;3.38;;;4.90;99.90;;;;;;5075261;28;20083;-40
2023/04/19 04:39:28;;;;;;;5.97;3.00;;;4.90;99.90;;;;;;5075427;28;20052;-40
2023/04/19 04:41:56;;;;;;;8.40;3.42;;;4.90;99.90;;;;;;5075358;28;20048;-40
2023/04/19 04:44:22;;;;;;;9.43;3.65;;;4.80;99.90;;;;;;5075134;28;20123;-40
2023/04/19 04:46:48;;;;;;;6.15;2.80;;;4.90;99.90;;;;;;5075304;28;20047;-40
2023/04/19 04:49:13;;;;;;;8.33;3.23;;;4.90;99.90;;;;;;5075086;28;20062;-40
2023/04/19 04:51:39;;;;;;;6.23;2.93;;;4.90;99.90;;;;;;5074888;28;20056;-40
2023/04/19 04:54:05;;;;;;;6.83;2.90;;;4.90;99.90;;;;;;5076308;28;20041;-40
2023/04/19 04:56:31;;;;;;;6.70;2.77;;;4.90;99.90;;;;;;5076114;28;20048;-40
2023/04/19 04:58:56;;;;;;;6.37;3.13;;;5.00;99.90;;;;;;5075992;28;20506;-40
2023/04/19 05:01:22;;;;;;;6.10;3.13;;;5.00;99.90;;;;;;5075026;28;20056;-40
2023/04/19 05:03:49;;;;;;;6.30;3.15;;;5.00;99.90;;;;;;5074949;28;20085;-40
2023/04/19 05:06:15;;;;;;;6.78;2.80;;;5.10;99.90;;;;;;5074657;28;20051;-41
2023/04/19 05:08:41;;;;;;;5.30;2.37;;;5.20;99.90;;;;;;5075573;28;20048;-40
2023/04/19 05:11:07;;;;;;;6.60;2.30;;;5.30;99.90;;;;;;5074613;28;20044;-40
2023/04/19 05:13:33;;;;;;;7.30;2.72;;;5.40;99.90;;;;;;5075616;28;20048;-40
2023/04/19 05:15:58;;;;;;;4.80;2.17;;;5.50;99.90;;;;;;5075767;28;20098;-40
2023/04/19 05:18:24;;;;;;;5.63;2.40;;;5.60;99.90;;;;;;5074604;28;20546;-40
2023/04/19 05:20:50;;;;;;;4.80;2.30;;;5.60;99.90;;;;;;5057789;28;20049;-40
2023/04/19 05:23:15;;;;;;;6.70;2.53;;;5.70;99.90;;;;;;5058291;28;20054;-40
2023/04/19 05:25:41;;;;;;;5.87;2.47;;;5.70;99.90;;;;;;5058352;28;20387;-40
2023/04/19 05:28:07;;;;;;;5.77;2.53;;;5.80;99.90;;;;;;5074515;28;20055;-41
2023/04/19 05:30:33;;;;;;;5.43;2.57;;;5.90;99.90;;;;;;5057806;28;20403;-41
2023/04/19 05:32:58;;;;;;;5.93;2.87;;;6.00;99.90;;;;;;5057504;28;20135;-41
2023/04/19 05:35:24;;;;;;;6.00;2.37;;;6.20;99.90;;;;;;5073848;28;20064;-41
2023/04/19 05:37:50;;;;;;;6.23;2.20;;;6.40;99.90;;;;;;5074296;28;20049;-40
2023/04/19 05:40:16;;;;;;;5.60;2.37;;;6.50;99.90;;;;;;5074341;28;20519;-41
2023/04/19 05:42:42;;;;;;;5.63;2.27;;;6.40;99.90;;;;;;5073893;28;20123;-40
2023/04/19 05:45:08;;;;;;;7.25;2.40;;;6.40;99.90;;;;;;5073825;28;20056;-40
2023/04/19 05:47:34;;;;;;;5.93;2.13;;;6.30;99.90;;;;;;5073100;28;20507;-40
2023/04/19 05:50:00;;;;;;;4.70;1.87;;;6.30;99.90;;;;;;5073916;28;20322;-41
2023/04/19 05:52:25;;;;;;;7.67;2.60;;;6.30;99.90;;;;;;5073507;28;20407;-40
2023/04/19 05:54:51;;;;;;;5.10;2.43;;;6.40;99.90;;;;;;5075020;28;20056;-40
2023/04/19 05:57:17;;;;;;;8.77;2.87;;;6.40;99.90;;;;;;5074783;28;20052;-40
2023/04/19 05:59:42;;;;;;;4.33;2.40;;;6.40;99.90;;;;;;5074654;28;20048;-40
2023/04/19 06:02:08;;;;;;;4.27;1.73;;;6.50;99.90;;;;;;5073573;28;20059;-41
2023/04/19 06:04:34;;;;;;;5.00;2.23;;;6.80;99.90;;;;;;5073348;28;20041;-41
2023/04/19 06:06:59;;;;;;;5.00;2.17;;;7.00;99.90;;;;;;5074332;28;20056;-42
2023/04/19 06:09:25;;;;;;;4.70;2.20;;;7.30;99.90;;;;;;5074338;28;20403;-43
2023/04/19 06:11:53;;;;;;;6.17;1.83;;;7.80;99.90;;;;;;5073299;28;20095;-41
2023/04/19 06:14:19;;;;;;;4.50;1.83;;;8.10;99.90;;;;;;5073271;28;20063;-41
2023/04/19 06:16:45;;;;;;;5.77;2.10;;;8.00;99.90;;;;;;5074275;28;20045;-41
2023/04/19 06:19:10;;;;;;;4.30;1.87;;;7.90;99.90;;;;;;5074144;28;20356;-41
2023/04/19 06:21:36;;;;;;;5.40;2.30;;;7.90;99.90;;;;;;5074352;28;20494;-41
2023/04/19 06:24:02;;;;;;;3.87;1.83;;;7.80;99.90;;;;;;5073157;28;20052;-41
2023/04/19 06:26:28;;;;;;;4.57;1.90;;;7.80;99.90;;;;;;5073332;28;20127;-41
2023/04/19 06:28:53;;;;;;;5.00;1.73;;;7.90;99.90;;;;;;5072766;28;20044;-41
2023/04/19 06:31:19;;;;;;;4.43;2.07;;;8.20;99.90;;;;;;5072953;28;20052;-41
2023/04/19 06:33:45;;;;;;;4.03;1.53;;;8.80;99.90;;;;;;5073824;28;20063;-41
2023/04/19 06:36:12;;;;;;;3.80;1.50;;;9.60;99.90;;;;;;5074497;28;20072;-42
2023/04/19 06:38:38;;;;;;;5.03;1.60;;;10.30;99.90;;;;;;5073543;28;20083;-41
2023/04/19 06:41:04;;;;;;;4.28;1.48;;;11.10;99.90;;;;;;5073830;28;20505;-41
2023/04/19 06:43:30;;;;;;;3.50;1.40;;;11.80;99.90;;;;;;5074046;28;20072;-41
2023/04/19 06:46:03;;;;;;;4.50;1.60;;;12.50;99.90;;;;;;5073854;28;20044;-41
2023/04/19 06:48:29;;;;;;;4.40;1.80;;;12.90;99.90;;;;;;5072966;28;20056;-41
2023/04/19 06:50:55;;;;;;;3.33;1.30;;;12.90;99.90;;;;;;5072974;28;20106;-41
2023/04/19 06:53:21;;;;;;;3.45;1.52;;;12.90;99.90;;;;;;5055912;28;20037;-42
2023/04/19 06:55:47;;;;;;;4.75;1.52;;;12.70;99.90;;;;;;5072796;28;20517;-40
2023/04/19 06:58:13;;;;;;;3.75;1.65;;;12.70;99.90;;;;;;5056018;28;20049;-40
2023/04/19 07:00:39;;;;;;;3.23;1.40;;;12.60;99.90;;;;;;5073833;28;20045;-40
2023/04/19 07:03:04;;;;;;;4.40;1.77;;;12.40;99.90;;;;;;5072429;28;20040;-40
2023/04/19 07:05:30;;;;;;;3.50;1.23;;;12.10;99.90;;;;;;5073756;28;20051;-40
2023/04/19 07:07:56;;;;;;;3.97;1.40;;;11.70;99.90;;;;;;5072790;28;20044;-40
2023/04/19 07:10:22;;;;;;;2.50;1.10;;;11.50;99.90;;;;;;5072663;28;20055;-40
2023/04/19 07:12:48;;;;;;;2.93;1.23;;;11.40;99.90;;;;;;5073534;28;20045;-40
2023/04/19 07:15:14;;;;;;;3.40;1.33;;;11.40;99.90;;;;;;5073759;28;20048;-40
2023/04/19 07:17:40;;;;;;;3.90;1.20;;;11.40;99.90;;;;;;5073399;28;20048;-40
2023/04/19 07:20:06;;;;;;;2.28;1.10;;;11.30;99.90;;;;;;5073630;28;20041;-40
2023/04/19 07:22:32;;;;;;;3.55;1.27;;;11.30;99.90;;;;;;5072230;28;20079;-40
2023/04/19 07:24:58;;;;;;;2.60;1.00;;;11.30;99.90;;;;;;5072371;28;20134;-40
2023/04/19 07:27:24;;;;;;;2.57;1.00;;;11.30;99.90;;;;;;5055932;28;20048;-40
2023/04/19 07:29:50;;;;;;;2.40;1.10;;;11.30;99.90;;;;;;5055723;28;20052;-40
2023/04/19 07:32:16;;;;;;;2.95;0.98;;;11.40;99.90;;;;;;5073277;28;20040;-40
2023/04/19 07:34:42;;;;;;;2.30;0.97;;;11.50;99.50;;;;;;5073399;28;20052;-40
2023/04/19 07:37:08;;;;;;;2.85;1.00;;;11.40;99.10;;;;;;5072275;28;20051;-40
2023/04/19 07:39:33;;;;;;;2.90;0.93;;;11.30;99.30;;;;;;5073231;28;20051;-40
2023/04/19 07:42:02;;;;;;;3.20;1.00;;;11.10;99.40;;;;;;5072307;28;20048;-40
2023/04/19 07:44:28;;;;;;;2.03;0.88;;;10.90;99.90;;;;;;5073305;28;20139;-40
2023/04/19 07:46:53;;;;;;;3.33;1.10;;;10.80;99.90;;;;;;5071858;28;20127;-40
2023/04/19 07:49:19;;;;;;;1.90;0.97;;;10.70;99.90;;;;;;5055500;28;20049;-40
2023/04/19 07:51:45;;;;;;;2.60;1.00;;;10.60;99.90;;;;;;5072203;28;20479;-40
2023/04/19 07:54:11;;;;;;;2.67;1.10;;;10.60;99.90;;;;;;5073320;28;20127;-40
2023/04/19 07:56:37;;;;;;;2.90;0.90;;;10.50;99.90;;;;;;5072080;28;20054;-40
2023/04/19 07:59:02;;;;;;;3.40;1.10;;;10.50;99.90;;;;;;5072217;28;20079;-40
2023/04/19 08:01:29;;;;;;;2.67;0.97;;;10.50;99.90;;;;;;5072899;28;20331;-40
2023/04/19 08:03:55;;;;;;;2.30;0.77;;;10.60;99.90;;;;;;5073059;28;20053;-41
2023/04/19 08:06:20;;;;;;;2.13;0.80;;;10.60;99.90;;;;;;5071995;28;20391;-40
2023/04/19 08:08:47;;;;;;;2.13;0.70;;;10.60;99.90;;;;;;5071918;28;20044;-40
2023/04/19 08:11:12;;;;;;;2.15;0.95;;;10.60;99.90;;;;;;5076800;28;20048;-40
2023/04/19 08:13:38;;;;;;;2.10;0.87;;;10.60;99.90;;;;;;5075483;28;20055;-40
2023/04/19 08:16:04;;;;;;;3.50;1.10;;;10.60;99.90;;;;;;5075622;28;20037;-40
2023/04/19 08:18:30;;;;;;;2.33;1.02;;;10.60;99.90;;;;;;5075828;28;20462;-40
2023/04/19 08:20:56;;;;;;;1.50;0.70;;;10.60;99.90;;;;;;5075543;28;20124;-40
2023/04/19 08:23:22;;;;;;;2.65;0.80;;;10.60;99.90;;;;;;5092246;28;20510;-40
2023/04/19 08:25:48;;;;;;;2.03;0.60;;;10.70;99.90;;;;;;5042433;28;20041;-40
2023/04/19 08:28:13;;;;;;;2.67;0.80;;;10.70;99.90;;;;;;5075619;28;20048;-40
2023/04/19 08:30:39;;;;;;;1.90;0.93;;;10.70;99.90;;;;;;5042004;28;20047;-40
2023/04/19 08:33:05;;;;;;;3.35;0.77;;;10.70;99.90;;;;;;5059182;28;20441;-41
2023/04/19 08:35:33;;;;;;;2.23;0.83;;;10.70;99.90;;;;;;5075180;28;20091;-40
2023/04/19 08:37:58;;;;;;;1.48;0.70;;;10.80;99.90;;;;;;5075305;28;20471;-40
2023/04/19 08:40:24;;;;;;;2.17;0.77;;;10.80;99.90;;;;;;5076347;28;20049;-40
2023/04/19 08:42:50;;;;;;;2.13;1.00;;;10.80;99.70;;;;;;5075091;28;20044;-40
2023/04/19 08:45:18;;;;;;;4.77;0.87;;;10.80;99.30;;;;;;5075206;28;20048;-40
2023/04/19 08:47:45;;;;;;;2.15;0.80;;;10.90;99.50;;;;;;5075243;28;20048;-40
2023/04/19 08:50:11;;;;;;;2.05;0.80;;;10.90;99.20;;;;;;5076201;28;20131;-40
2023/04/19 08:52:37;;;;;;;2.73;1.10;;;10.90;99.10;;;;;;5058554;28;20127;-40
2023/04/19 08:55:04;;;;;;;3.20;0.93;;;10.90;98.20;;;;;;5058373;28;20052;-40
2023/04/19 08:57:31;;;;;;;1.63;0.90;;;11.00;97.70;;;;;;5074867;28;20135;-40
2023/04/19 08:59:58;;;;;;;1.30;0.70;;;11.00;98.10;;;;;;5058177;28;20206;-41
2023/04/19 09:02:24;;;;;;;4.03;1.08;;;11.10;98.30;;;;;;5074724;28;20376;-40
2023/04/19 09:04:49;;;;;;;2.40;0.77;;;11.10;98.10;;;;;;5058184;28;20055;-40
2023/04/19 09:07:23;;;;;;;2.20;0.70;;;11.20;97.60;;;;;;5075212;28;20501;-40
2023/04/19 09:10:06;;;;;;;2.08;0.75;;;11.30;98.80;;;;;;5075682;28;20048;-40
2023/04/19 09:12:33;;;;;;;2.83;0.70;;;11.40;97.60;;;;;;5075370;28;20557;-40
2023/04/19 09:15:02;;;;;;;2.13;0.55;;;11.50;96.90;;;;;;5091691;28;20053;-40
2023/04/19 09:17:28;;;;;;;2.28;0.70;;;11.50;96.30;;;;;;5058023;28;20381;-41
2023/04/19 09:19:53;;;;;;;1.92;0.70;;;11.50;95.70;;;;;;5057717;28;20102;-40
2023/04/19 09:22:19;;;;;;;1.97;0.63;;;11.60;96.40;;;;;;5073349;28;20053;-40
2023/04/19 09:24:45;;;;;;;1.30;0.60;;;11.70;96.50;;;;;;5075363;28;20054;-44
2023/04/19 09:27:11;;;;;;;1.50;0.57;;;11.70;95.30;;;;;;5074303;28;20373;-40
2023/04/19 09:29:37;;;;;;;2.70;0.60;;;11.80;93.70;;;;;;5040863;28;20048;-40
2023/04/19 09:32:03;;;;;;;2.75;0.70;;;11.80;94.70;;;;;;5074378;28;20330;-41
2023/04/19 09:34:32;;;;;;;2.78;0.95;;;11.90;94.60;;;;;;5074390;28;20091;-40
2023/04/19 09:37:10;;;;;;;1.83;0.77;;;11.90;91.90;;;;;;5075051;28;20068;-40
2023/04/19 09:39:35;;;;;;;2.42;0.82;;;11.90;92.10;;;;;;5075001;28;20044;-41
2023/04/19 09:42:01;;;;;;;1.37;0.60;;;12.00;92.80;;;;;;5075217;28;20124;-40
2023/04/19 09:44:27;;;;;;;2.70;0.60;;;12.10;92.30;;;;;;5075075;28;20056;-40
2023/04/19 09:46:54;;;;;;;1.35;0.50;;;12.20;91.80;;;;;;5075095;28;20132;-40
2023/04/19 09:49:24;;;;;;;2.25;0.60;;;12.20;90.80;;;;;;5073747;28;20128;-40
2023/04/19 09:51:54;;;;;;;2.53;0.52;;;12.30;91.00;;;;;;5057310;28;20545;-40
2023/04/19 09:54:22;;;;;;;2.53;0.60;;;12.40;91.20;;;;;;5074868;28;20048;-40
2023/04/19 09:56:48;;;;;;;0.82;0.40;;;12.40;90.30;;;;;;5073905;28;20053;-40
2023/04/19 09:59:14;;;;;;;;;;;12.50;89.40;;;;;;5057546;28;20060;-40
2023/04/19 10:01:54;;;;;;;1.23;0.40;;;12.50;85.90;;;;;;5074674;28;19920;-40
2023/04/19 10:04:21;;;;;;;1.35;0.40;;;12.50;84.80;;;;;;5073652;28;20059;-40
2023/04/19 10:06:51;;;;;;;1.08;0.50;;;12.50;86.60;;;;;;5074561;28;20518;-40
2023/04/19 10:09:21;;;;;;;0.90;0.40;;;12.60;87.00;;;;;;5074424;28;20499;-40
2023/04/19 10:11:48;;;;;;;1.63;0.52;;;12.70;88.40;;;;;;5073456;28;20032;-40
2023/04/19 10:14:16;;;;;;;1.15;0.50;;;12.80;88.90;;;;;;5073728;28;20040;-40
2023/04/19 10:16:41;;;;;;;1.27;0.50;;;12.90;90.30;;;;;;5073518;28;20048;-39
2023/04/19 10:19:11;;;;;;;1.47;0.50;;;13.00;90.30;;;;;;5074269;28;20059;-40
2023/04/19 10:21:38;;;;;;;1.25;0.40;;;13.10;90.10;;;;;;5073394;28;20147;-40
2023/04/19 10:24:05;;;;;;;1.63;0.55;;;13.20;85.80;;;;;;5073292;28;20109;-40
2023/04/19 10:26:50;;;;;;;;;;;13.10;85.10;;;;;;5040588;28;20048;-41
2023/04/19 10:29:55;;;;;;;1.65;0.80;;;13.20;87.50;;;;;;5072894;28;19920;-41
2023/04/19 10:32:21;;;;;;;1.00;0.40;;;13.30;86.10;;;;;;5072986;28;20047;-40
2023/04/19 10:34:47;;;;;;;1.98;0.60;;;13.40;85.10;;;;;;5072630;28;20079;-40
2023/04/19 10:37:15;;;;;;;2.37;0.90;;;13.30;85.10;;;;;;5074072;28;20055;-40
2023/04/19 10:39:43;;;;;;;2.47;0.70;;;13.40;84.80;;;;;;5089847;28;20040;-40
2023/04/19 10:42:09;;;;;;;1.88;0.50;;;13.40;84.80;;;;;;5056310;28;20050;-40
2023/04/19 10:44:35;;;;;;;1.42;0.40;;;13.40;83.60;;;;;;5073253;28;20119;-40
2023/04/19 10:47:01;;;;;;;1.87;0.60;;;13.50;84.70;;;;;;5072917;28;20115;-40
2023/04/19 10:49:30;;;;;;;1.38;0.80;;;13.50;83.90;;;;;;5073767;28;20048;-40
2023/04/19 10:51:58;;;;;;;1.67;0.50;;;13.50;81.60;;;;;;5072680;28;20059;-40
2023/04/19 10:54:32;;;;;;;0.90;0.40;;;13.50;80.80;;;;;;5072616;28;20044;-40
2023/04/19 10:57:04;;;;;;;1.10;0.45;;;13.50;82.00;;;;;;5073900;28;20048;-40
2023/04/19 10:59:41;;;;;;;2.45;0.50;;;13.60;82.80;;;;;;5072891;28;20045;-41
2023/04/19 11:02:23;;;;;;;1.00;0.50;;;13.60;80.20;;;;;;5073115;28;20106;-41
2023/04/19 11:04:52;;;;;;;1.45;0.60;;;13.60;80.60;;;;;;5056029;28;20082;-40
2023/04/19 11:07:20;;;;;;;2.13;0.57;;;13.60;79.80;;;;;;5055946;28;20084;-40
2023/04/19 11:09:47;;;;;;;1.58;0.60;;;13.50;79.60;;;;;;5072841;28;20099;-40
2023/04/19 11:12:15;;;;;;;1.58;0.50;;;13.60;81.30;;;;;;5073474;28;20040;-40
2023/04/19 11:14:43;;;;;;;2.00;0.63;;;13.70;81.90;;;;;;5072670;28;20051;-40
2023/04/19 11:17:27;;;;;;;1.10;0.50;;;13.80;82.00;;;;;;5055778;28;20055;-40
2023/04/19 11:19:52;;;;;;;1.50;0.60;;;13.90;81.40;;;;;;5072724;28;20094;-40
2023/04/19 11:22:24;;;;;;;1.20;0.60;;;13.90;81.10;;;;;;5073220;28;20088;-40
2023/04/19 11:24:50;;;;;;;2.45;0.80;;;14.00;80.80;;;;;;5073568;28;20135;-40
2023/04/19 11:27:15;;;;;;;2.37;0.67;;;13.90;80.50;;;;;;5072434;28;20395;-40
2023/04/19 11:29:41;;;;;;;1.83;0.60;;;14.00;81.30;;;;;;5072613;28;20052;-40
2023/04/19 11:32:07;;;;;;;1.67;0.50;;;14.10;82.70;;;;;;5072296;28;20377;-40
2023/04/19 11:34:37;;;;;;;1.90;0.70;;;14.10;82.00;;;;;;5073451;28;20061;-40
2023/04/19 11:37:03;;;;;;;3.08;0.95;;;14.30;83.20;;;;;;5073187;28;20060;-40
2023/04/19 11:39:29;;;;;;;1.50;0.68;;;14.50;83.20;;;;;;5071996;28;20045;-40
2023/04/19 11:41:55;;;;;;;1.88;0.73;;;14.60;83.20;;;;;;5073136;28;20084;-40
2023/04/19 11:44:20;;;;;;;2.75;0.80;;;14.70;83.40;;;;;;5073380;28;20047;-43
2023/04/19 11:47:02;;;;;;;2.07;1.00;;;14.70;83.20;;;;;;5077028;28;20050;-40
2023/04/19 11:49:32;;;;;;;1.85;0.70;;;14.70;81.90;;;;;;5076350;28;20048;-40
2023/04/19 11:52:00;;;;;;;2.75;0.90;;;14.70;82.40;;;;;;5059536;28;20048;-40
2023/04/19 11:54:26;;;;;;;1.77;0.80;;;14.70;82.10;;;;;;5076986;28;20507;-40
2023/04/19 11:57:00;;;;;;;2.10;0.80;;;14.80;82.90;;;;;;5076330;28;20041;-41
2023/04/19 11:59:27;;;;;;;2.45;0.90;;;14.80;82.90;;;;;;5076110;28;20499;-41
2023/04/19 12:01:52;;;;;;;2.40;0.82;;;14.80;82.20;;;;;;5077135;28;20052;-40
2023/04/19 12:04:20;;;;;;;2.15;1.00;;;14.80;82.40;;;;;;5076269;28;20060;-41
2023/04/19 12:06:55;;;;;;;2.67;0.82;;;14.70;81.20;;;;;;5076039;28;20048;-41
2023/04/19 12:09:21;;;;;;;2.33;0.90;;;14.70;82.90;;;;;;5059309;28;20048;-40
2023/04/19 12:11:50;;;;;;;2.67;1.20;;;14.80;82.50;;;;;;5076668;28;20060;-41
2023/04/19 12:14:20;;;;;;;2.85;1.27;;;14.80;82.30;;;;;;5076829;28;20131;-40
2023/04/19 12:17:01;;;;;;;3.28;1.10;;;14.80;81.60;;;;;;5076793;28;20059;-40
2023/04/19 12:19:33;;;;;;;2.30;1.02;;;14.80;81.40;;;;;;5075758;28;20072;-40
2023/04/19 12:22:19;;;;;;;3.38;1.02;;;14.80;81.00;;;;;;5058942;28;20525;-40
2023/04/19 12:24:45;;;;;;;6.60;1.85;;;14.80;80.40;;;;;;5059064;28;20053;-40
2023/04/19 12:27:10;;;;;;;2.45;1.00;;;14.80;81.10;;;;;;5075576;28;20036;-40
2023/04/19 12:29:37;;;;;;;3.58;1.35;;;14.80;80.60;;;;;;5059067;28;20044;-40
2023/04/19 12:32:03;;;;;;;;;;;14.80;81.70;;;;;;5076835;28;20041;-41
2023/04/19 12:34:29;;;;;;;2.83;1.55;;;14.80;82.40;;;;;;5076419;28;20040;-40
2023/04/19 12:36:55;;;;;;;3.75;1.60;;;14.80;82.90;;;;;;5058536;28;20161;-41
2023/04/19 12:39:21;;;;;;;4.68;1.65;;;14.80;83.20;;;;;;5076457;28;20048;-40
2023/04/19 12:41:47;;;;;;;3.55;1.30;;;14.80;83.00;;;;;;5075578;28;20041;-40
2023/04/19 12:44:14;;;;;;;2.70;1.25;;;14.80;83.70;;;;;;5092429;28;20056;-40
2023/04/19 12:46:40;;;;;;;3.15;1.10;;;14.70;84.40;;;;;;5076132;28;20052;-40
2023/04/19 12:49:06;;;;;;;3.23;1.30;;;14.70;85.30;;;;;;5075043;28;20044;-41
2023/04/19 12:51:31;;;;;;;2.70;1.13;;;14.70;86.10;;;;;;5058306;28;20301;-40